Time;durP1;ratioP1;P1;durP2;ratioP2;P2;SDS_P1;SDS_P2;PMS_P1;PMS_P2;Temp;Humidity;BMP_temperature;BMP_pressure;BME280_temperature;BME280_humidity;BME280_pressure;Samples;Min_cycle;Max_cycle;Signal;HPM_P1;HPM_P2
2023/06/23 00:00:20;;;;;;;6.10;4.25;;;;;;;18.87;50.55;101213.38;5020263;28;20063;-66
2023/06/23 00:02:49;;;;;;;5.10;3.60;;;;;;;18.84;50.65;101219.25;5004949;28;20049;-66
2023/06/23 00:05:17;;;;;;;5.30;3.90;;;;;;;18.84;50.68;101235.91;5009857;28;20054;-66
2023/06/23 00:07:45;;;;;;;6.13;4.05;;;;;;;18.83;50.97;101239.72;5017962;28;20056;-66
2023/06/23 00:10:14;;;;;;;5.82;4.47;;;;;;;18.82;50.94;101236.06;5023956;28;20045;-66
2023/06/23 00:12:42;;;;;;;5.63;4.18;;;;;;;18.82;50.87;101230.53;5023682;28;20048;-66
2023/06/23 00:15:12;;;;;;;5.88;3.95;;;;;;;18.82;50.73;101227.75;5023978;28;20122;-66
2023/06/23 00:17:46;;;;;;;6.30;4.20;;;;;;;18.84;51.26;101224.81;5008595;28;20417;-66
2023/06/23 00:20:14;;;;;;;5.30;3.70;;;;;;;18.81;51.08;101222.38;5006697;28;20592;-66
2023/06/23 00:22:43;;;;;;;5.82;3.95;;;;;;;18.81;50.76;101239.88;5011452;28;20048;-66
2023/06/23 00:25:13;;;;;;;5.63;3.88;;;;;;;18.81;51.00;101242.66;5002935;28;20039;-66
2023/06/23 00:27:42;;;;;;;5.45;3.90;;;;;;;18.79;50.74;101242.00;5001818;28;20049;-66
2023/06/23 00:30:11;;;;;;;5.63;3.85;;;;;;;18.78;50.90;101244.94;5005521;28;20038;-66
2023/06/23 00:32:40;;;;;;;5.10;3.42;;;;;;;18.76;50.85;101247.88;5008714;28;20070;-66
2023/06/23 00:35:10;;;;;;;5.80;3.63;;;;;;;18.77;50.84;101252.41;5011768;28;20056;-66
2023/06/23 00:37:38;;;;;;;6.45;3.90;;;;;;;18.74;50.84;101258.28;5020591;28;20050;-66
2023/06/23 00:40:10;;;;;;;5.85;4.22;;;;;;;18.74;50.76;101257.41;5024039;28;20064;-66
2023/06/23 00:42:45;;;;;;;7.45;4.25;;;;;;;18.74;50.96;101266.59;5012941;28;20043;-67
2023/06/23 00:45:14;;;;;;;5.28;3.20;;;;;;;18.71;50.49;101271.66;5026815;28;20398;-66
2023/06/23 00:47:43;;;;;;;4.88;3.72;;;;;;;18.71;50.76;101264.22;5003266;28;20528;-66
2023/06/23 00:50:16;;;;;;;5.55;3.65;;;;;;;18.72;50.75;101282.53;4999069;28;20092;-67
2023/06/23 00:52:49;;;;;;;5.80;3.60;;;;;;;18.70;50.83;101276.34;5007203;28;20660;-66
2023/06/23 00:55:20;;;;;;;6.30;3.88;;;;;;;18.70;50.91;101283.78;4982941;28;20048;-66
2023/06/23 00:57:49;;;;;;;5.63;3.42;;;;;;;18.68;50.85;101278.41;5033960;28;20041;-66
2023/06/23 01:00:18;;;;;;;5.03;3.25;;;;;;;18.69;50.73;101288.47;5009864;28;20045;-66
2023/06/23 01:02:50;;;;;;;5.43;3.33;;;;;;;18.66;50.64;101286.03;5024931;28;20048;-66
2023/06/23 01:05:22;;;;;;;5.07;3.22;;;;;;;18.69;50.52;101305.09;5028241;28;20093;-66
2023/06/23 01:08:03;;;;;;;4.85;3.58;;;;;;;18.68;50.73;101305.28;5011026;28;20332;-66
2023/06/23 01:10:36;;;;;;;4.60;3.22;;;;;;;18.66;50.84;101305.44;5024531;28;20124;-66
2023/06/23 01:13:14;;;;;;;5.50;3.63;;;;;;;18.66;51.06;101305.44;5020868;28;21314;-66
2023/06/23 01:15:50;;;;;;;5.03;3.10;;;;;;;18.67;50.59;101309.09;5012402;28;20371;-67
2023/06/23 01:18:28;;;;;;;4.20;3.10;;;;;;;18.68;50.54;101310.81;5015250;28;20045;-66
2023/06/23 01:21:02;;;;;;;4.93;3.35;;;;;;;18.68;50.60;101327.44;5030996;28;20056;-66
2023/06/23 01:24:02;;;;;;;4.90;3.40;;;;;;;18.63;50.21;101325.22;5011647;28;20053;-66
2023/06/23 01:26:42;;;;;;;4.55;2.90;;;;;;;18.65;50.58;101333.34;5005887;28;20055;-66
2023/06/23 01:29:17;;;;;;;5.60;2.90;;;;;;;18.63;49.94;101336.31;5004618;28;20433;-66
2023/06/23 01:31:54;;;;;;;5.43;2.90;;;;;;;18.65;49.96;101341.66;5009386;28;20123;-66
2023/06/23 01:34:29;;;;;;;6.28;3.45;;;;;;;18.64;50.12;101351.88;5028011;28;20077;-66
2023/06/23 01:37:07;;;;;;;4.80;3.35;;;;;;;18.64;50.89;101354.66;5021708;28;20120;-66
2023/06/23 01:39:40;;;;;;;5.47;2.97;;;;;;;18.62;50.71;101367.84;5031230;28;20037;-66
2023/06/23 01:42:13;;;;;;;6.00;3.42;;;;;;;18.62;50.57;101372.53;5030490;28;20048;-66
2023/06/23 01:44:48;;;;;;;5.57;3.38;;;;;;;18.62;50.69;101367.84;5033713;28;20044;-66
2023/06/23 01:47:19;;;;;;;5.13;2.97;;;;;;;18.61;50.17;101371.66;5002646;28;20099;-66
2023/06/23 01:49:49;;;;;;;5.45;3.13;;;;;;;18.60;50.30;101369.91;5028723;28;20051;-66
2023/06/23 01:52:19;;;;;;;4.57;3.10;;;;;;;18.59;50.41;101373.72;5024076;28;20424;-66
2023/06/23 01:54:49;;;;;;;4.90;3.20;;;;;;;18.59;50.47;101384.81;5023906;28;20038;-67
2023/06/23 01:57:20;;;;;;;5.40;3.08;;;;;;;18.57;50.26;101386.88;5032271;28;20059;-67
2023/06/23 01:59:51;;;;;;;4.72;2.90;;;;;;;18.56;50.13;101404.56;5010779;28;20048;-67
2023/06/23 02:02:23;;;;;;;6.25;3.55;;;;;;;18.54;50.36;101401.13;5014520;28;20497;-67
2023/06/23 02:04:52;;;;;;;4.70;3.10;;;;;;;18.49;50.58;101400.75;5009694;28;20049;-68
2023/06/23 02:07:22;;;;;;;4.68;3.20;;;;;;;18.50;50.66;101388.63;5001346;28;20358;-67
2023/06/23 02:09:52;;;;;;;4.60;3.20;;;;;;;18.47;51.07;101398.13;5011385;28;20045;-67
2023/06/23 02:12:21;;;;;;;5.30;3.03;;;;;;;18.46;50.74;101399.19;5025763;28;20047;-67
2023/06/23 02:14:51;;;;;;;5.70;3.45;;;;;;;18.47;50.79;101398.13;5005196;28;20096;-67
2023/06/23 02:17:21;;;;;;;5.75;3.53;;;;;;;18.45;50.76;101400.22;5027320;28;20079;-67
2023/06/23 02:19:53;;;;;;;4.68;3.17;;;;;;;18.44;50.64;101397.59;5027760;28;20486;-67
2023/06/23 02:22:24;;;;;;;4.93;3.10;;;;;;;18.42;50.55;101399.69;5032673;28;20093;-67
2023/06/23 02:24:52;;;;;;;5.55;3.42;;;;;;;18.40;50.48;101407.28;5008793;28;20049;-67
2023/06/23 02:27:22;;;;;;;4.70;3.30;;;;;;;18.41;50.35;101401.59;5011591;28;20049;-67
2023/06/23 02:29:54;;;;;;;4.57;3.15;;;;;;;18.42;50.89;101416.31;5006318;28;20040;-66
2023/06/23 02:32:25;;;;;;;7.25;3.70;;;;;;;18.35;50.90;101418.91;5022806;28;20042;-67
2023/06/23 02:34:54;;;;;;;4.95;3.00;;;;;;;18.36;50.96;101411.47;5024346;28;20052;-67
2023/06/23 02:37:25;;;;;;;5.38;3.28;;;;;;;18.38;50.60;101420.47;5011128;28;20153;-66
2023/06/23 02:39:58;;;;;;;5.68;2.83;;;;;;;18.36;50.78;101433.63;5030870;28;20507;-66
2023/06/23 02:42:32;;;;;;;4.90;3.30;;;;;;;18.35;50.87;101431.91;5029000;28;20072;-66
2023/06/23 02:45:07;;;;;;;5.00;3.13;;;;;;;18.35;50.98;101448.53;5027359;28;20049;-67
2023/06/23 02:47:40;;;;;;;5.28;2.72;;;;;;;18.33;50.81;101450.59;5027486;28;20072;-66
2023/06/23 02:50:12;;;;;;;5.82;3.17;;;;;;;18.32;50.82;101454.41;5006814;28;20275;-66
2023/06/23 02:52:45;;;;;;;4.73;2.70;;;;;;;18.29;50.57;101450.09;5002472;28;20060;-66
2023/06/23 02:55:17;;;;;;;5.07;3.25;;;;;;;18.30;51.13;101462.91;5024387;28;20058;-66
2023/06/23 02:57:48;;;;;;;6.00;3.23;;;;;;;18.28;50.75;101451.13;5037067;28;20516;-66
2023/06/23 03:00:22;;;;;;;5.47;3.03;;;;;;;18.29;50.88;101454.75;5025379;28;20072;-66
2023/06/23 03:02:59;;;;;;;6.60;3.50;;;;;;;18.30;51.50;101456.50;5009887;28;20050;-66
2023/06/23 03:05:27;;;;;;;5.28;3.90;;;;;;;18.28;50.53;101461.34;4999678;28;20371;-66
2023/06/23 03:07:55;;;;;;;6.40;4.25;;;;;;;18.27;50.66;101466.00;5004014;28;20051;-66
2023/06/23 03:10:23;;;;;;;7.10;4.30;;;;;;;18.27;50.43;101463.22;4992300;28;20104;-66
2023/06/23 03:12:51;;;;;;;5.90;3.67;;;;;;;18.26;50.58;101472.59;4997140;28;20073;-66
2023/06/23 03:15:21;;;;;;;6.60;3.95;;;;;;;18.29;50.52;101476.94;4992574;28;20052;-66
2023/06/23 03:17:53;;;;;;;6.22;4.13;;;;;;;18.28;50.55;101470.50;5007032;28;20505;-66
2023/06/23 03:20:26;;;;;;;6.53;4.32;;;;;;;18.27;50.79;101473.44;5005209;28;20049;-66
2023/06/23 03:22:58;;;;;;;7.75;4.97;;;;;;;18.26;50.53;101483.66;5018277;28;20120;-66
2023/06/23 03:25:28;;;;;;;7.35;4.93;;;;;;;18.27;50.40;101490.94;5006990;28;20095;-66
2023/06/23 03:27:59;;;;;;;6.78;4.60;;;;;;;18.29;50.60;101493.56;5016931;28;20038;-66
2023/06/23 03:30:34;;;;;;;7.57;4.88;;;;;;;18.28;51.02;101495.44;5021340;28;20152;-66
2023/06/23 03:33:12;;;;;;;7.82;4.72;;;;;;;18.28;50.47;101506.53;5003540;28;20045;-66
2023/06/23 03:35:42;;;;;;;6.03;4.65;;;;;;;18.27;50.60;101499.25;5000876;28;20058;-66
2023/06/23 03:38:13;;;;;;;6.68;4.32;;;;;;;18.26;50.67;101513.28;5011752;28;20045;-67
2023/06/23 03:40:47;;;;;;;6.40;4.63;;;;;;;18.28;50.52;101525.94;5012596;28;20046;-66
2023/06/23 03:43:21;;;;;;;6.68;4.97;;;;;;;18.27;50.54;101532.50;5007198;28;20555;-67
2023/06/23 03:45:55;;;;;;;7.80;4.85;;;;;;;18.27;50.54;101532.50;5005876;28;20096;-66
2023/06/23 03:48:27;;;;;;;6.13;4.15;;;;;;;18.27;50.46;101531.63;5011413;28;20057;-66
2023/06/23 03:50:58;;;;;;;7.25;4.88;;;;;;;18.27;50.72;101539.94;5005025;28;20509;-66
2023/06/23 03:53:28;;;;;;;8.65;4.60;;;;;;;18.27;50.48;101528.88;5010558;28;20114;-66
2023/06/23 03:55:58;;;;;;;7.55;4.88;;;;;;;18.26;50.59;101533.53;5007278;28;20077;-66
2023/06/23 03:58:28;;;;;;;7.63;4.97;;;;;;;18.25;50.20;101536.47;4994254;28;20081;-66
2023/06/23 04:00:58;;;;;;;6.50;4.30;;;;;;;18.25;50.22;101537.34;4993728;28;20054;-66
2023/06/23 04:03:30;;;;;;;6.15;4.22;;;;;;;18.25;50.37;101545.66;4996123;28;20038;-66
2023/06/23 04:05:59;;;;;;;7.30;4.93;;;;;;;18.23;50.05;101539.41;4991829;28;20052;-66
2023/06/23 04:08:31;;;;;;;7.45;5.25;;;;;;;18.26;50.65;101543.75;5003003;28;20807;-66
2023/06/23 04:11:00;;;;;;;7.47;5.03;;;;;;;18.24;50.73;101555.00;5011218;28;20049;-66
2023/06/23 04:13:32;;;;;;;7.57;5.28;;;;;;;18.25;50.47;101556.72;5031023;28;20515;-66
2023/06/23 04:16:03;;;;;;;8.40;5.20;;;;;;;18.23;50.25;101560.69;5017438;28;20649;-66
2023/06/23 04:18:34;;;;;;;6.80;4.88;;;;;;;18.23;50.61;101558.78;5024657;28;20297;-66
2023/06/23 04:21:04;;;;;;;6.85;5.15;;;;;;;18.23;50.39;101564.34;5022526;28;20100;-66
2023/06/23 04:23:33;;;;;;;7.30;5.15;;;;;;;18.23;50.55;101572.66;5036885;28;20056;-66
2023/06/23 04:26:02;;;;;;;6.95;5.32;;;;;;;18.25;50.91;101575.25;5027996;28;20092;-66
2023/06/23 04:28:33;;;;;;;6.35;4.65;;;;;;;18.24;50.61;101576.28;5031505;28;20532;-66
2023/06/23 04:31:07;;;;;;;6.05;4.18;;;;;;;18.26;50.44;101574.22;5015784;28;20099;-66
2023/06/23 04:33:37;;;;;;;6.93;5.10;;;;;;;18.26;50.56;101586.19;5027077;28;20262;-66
2023/06/23 04:36:12;;;;;;;8.60;5.32;;;;;;;18.27;50.83;101593.47;5024324;28;20140;-67
2023/06/23 04:38:43;;;;;;;7.63;5.18;;;;;;;18.26;50.37;101588.09;5030414;28;20091;-66
2023/06/23 04:41:17;;;;;;;8.00;5.70;;;;;;;18.27;50.84;101582.38;5034079;28;20042;-66
2023/06/23 04:43:48;;;;;;;8.48;5.75;;;;;;;18.26;50.41;101586.19;5027134;28;20237;-66
2023/06/23 04:46:24;;;;;;;9.82;6.15;;;;;;;18.26;51.50;101588.94;5027147;28;20492;-66
2023/06/23 04:48:55;;;;;;;8.35;5.72;;;;;;;18.27;51.14;101604.53;5028007;28;20089;-66
2023/06/23 04:51:29;;;;;;;8.13;5.95;;;;;;;18.28;51.14;101602.66;5030952;28;20059;-66
2023/06/23 04:54:01;;;;;;;9.38;5.90;;;;;;;18.27;50.47;101599.00;5034821;28;20041;-67
2023/06/23 04:56:34;;;;;;;7.38;5.30;;;;;;;18.26;50.71;101604.72;5019581;28;20570;-66
2023/06/23 04:59:06;;;;;;;8.07;5.53;;;;;;;18.28;51.32;101610.97;5016016;28;20417;-66
2023/06/23 05:01:36;;;;;;;7.57;6.05;;;;;;;18.27;50.68;101615.63;5012595;28;20042;-67
2023/06/23 05:04:06;;;;;;;7.15;5.47;;;;;;;18.27;50.77;101612.84;5018649;28;20049;-66
2023/06/23 05:06:37;;;;;;;7.47;5.28;;;;;;;18.27;50.77;101618.41;5012082;28;20050;-62
2023/06/23 05:09:06;;;;;;;7.65;5.93;;;;;;;18.27;50.71;101623.06;5010477;28;20484;-62
2023/06/23 05:11:35;;;;;;;7.70;5.57;;;;;;;18.27;50.47;101626.72;5007726;28;20053;-61
2023/06/23 05:14:06;;;;;;;8.70;6.18;;;;;;;18.28;50.77;101627.59;5015450;28;20056;-59
2023/06/23 05:16:37;;;;;;;8.40;6.05;;;;;;;18.28;50.83;101624.81;5016967;28;20401;-61
2023/06/23 05:19:08;;;;;;;8.90;6.00;;;;;;;18.25;50.25;101639.84;5013886;28;20099;-61
2023/06/23 05:21:38;;;;;;;7.65;5.80;;;;;;;18.25;50.49;101645.41;5028464;28;20042;-60
2023/06/23 05:24:09;;;;;;;8.13;5.80;;;;;;;18.26;50.22;101640.72;5024479;28;20116;-61
2023/06/23 05:26:41;;;;;;;7.43;5.63;;;;;;;18.24;50.61;101649.19;5027502;28;20053;-60
2023/06/23 05:29:10;;;;;;;8.20;5.95;;;;;;;18.23;50.66;101654.91;5024506;28;20128;-60
2023/06/23 05:31:42;;;;;;;9.18;6.43;;;;;;;18.24;50.57;101648.34;5010042;28;20585;-61
2023/06/23 05:34:14;;;;;;;10.40;6.38;;;;;;;18.21;50.71;101646.78;5022945;28;20504;-61
2023/06/23 05:36:44;;;;;;;8.70;6.45;;;;;;;18.19;50.65;101654.38;5028354;28;20045;-61
2023/06/23 05:39:16;;;;;;;9.70;6.80;;;;;;;18.22;50.57;101651.28;5024443;28;20103;-61
2023/06/23 05:41:44;;;;;;;10.95;7.00;;;;;;;18.18;50.82;101652.66;5023399;28;20417;-62
2023/06/23 05:44:12;;;;;;;9.00;6.03;;;;;;;18.20;50.79;101655.25;5029905;28;20404;-62
2023/06/23 05:46:44;;;;;;;8.88;6.65;;;;;;;18.23;50.66;101657.69;5034185;28;20460;-61
2023/06/23 05:49:16;;;;;;;8.55;6.65;;;;;;;18.20;51.06;101663.56;5024178;28;20584;-61
2023/06/23 05:51:45;;;;;;;11.43;6.70;;;;;;;18.20;50.72;101669.09;5015073;28;20073;-61
2023/06/23 05:54:15;;;;;;;9.80;6.45;;;;;;;18.22;50.68;101672.59;5029947;28;20061;-59
2023/06/23 05:56:45;;;;;;;9.38;6.82;;;;;;;18.23;50.46;101669.63;5026861;28;20053;-62
2023/06/23 05:59:21;;;;;;;11.95;7.90;;;;;;;18.25;51.24;101667.56;5028816;28;20103;-66
2023/06/23 06:01:56;;;;;;;9.52;7.15;;;;;;;18.25;50.99;101667.56;5022371;28;20394;-61
2023/06/23 06:04:29;;;;;;;10.10;7.53;;;;;;;18.26;51.08;101677.63;5023401;28;20041;-62
2023/06/23 06:06:59;;;;;;;10.43;7.38;;;;;;;18.26;50.87;101674.84;5027544;28;20042;-60
2023/06/23 06:09:30;;;;;;;9.82;7.13;;;;;;;18.28;50.84;101678.34;5036161;28;20033;-60
2023/06/23 06:11:59;;;;;;;9.32;7.22;;;;;;;18.27;50.91;101678.50;5026589;28;20250;-62
2023/06/23 06:14:29;;;;;;;10.27;7.13;;;;;;;18.27;50.71;101679.38;5022770;28;20041;-62
2023/06/23 06:16:59;;;;;;;10.23;7.00;;;;;;;18.30;50.98;101694.81;5022016;28;20053;-60
2023/06/23 06:19:30;;;;;;;8.57;7.03;;;;;;;18.29;50.61;101696.69;5033528;28;20501;-61
2023/06/23 06:22:01;;;;;;;10.65;7.40;;;;;;;18.30;51.06;101705.88;5026526;28;20049;-62
2023/06/23 06:24:30;;;;;;;10.65;7.78;;;;;;;18.31;51.08;101705.69;5010994;28;20059;-62
2023/06/23 06:27:00;;;;;;;9.07;6.57;;;;;;;18.32;51.12;101706.56;5025107;28;20516;-61
2023/06/23 06:29:30;;;;;;;11.30;8.20;;;;;;;18.38;51.16;101708.69;5022002;28;20390;-60
2023/06/23 06:32:00;;;;;;;9.43;6.60;;;;;;;18.42;51.30;101715.63;5004499;28;20052;-61
2023/06/23 06:34:32;;;;;;;10.57;7.72;;;;;;;18.45;51.19;101718.97;5027077;28;20129;-61
2023/06/23 06:37:02;;;;;;;9.43;7.47;;;;;;;18.48;51.40;101718.66;5020141;28;20042;-61
2023/06/23 06:39:31;;;;;;;9.68;7.70;;;;;;;18.55;50.94;101723.56;5016659;28;20180;-61
2023/06/23 06:41:59;;;;;;;9.60;6.68;;;;;;;18.58;51.09;101732.38;5033051;28;20050;-61
2023/06/23 06:44:27;;;;;;;11.15;7.75;;;;;;;18.62;51.03;101719.06;5003879;28;20053;-61
2023/06/23 06:46:56;;;;;;;10.55;7.60;;;;;;;18.65;51.24;101729.81;5025244;28;20042;-62
2023/06/23 06:49:26;;;;;;;10.85;7.75;;;;;;;18.70;50.54;101731.06;5015943;28;20073;-60
2023/06/23 06:51:55;;;;;;;11.00;7.15;;;;;;;18.70;50.53;101738.53;5002851;28;20137;-61
2023/06/23 06:54:24;;;;;;;10.50;7.20;;;;;;;18.72;50.76;101742.84;5028114;28;20081;-61
2023/06/23 06:56:54;;;;;;;9.85;7.95;;;;;;;18.75;50.80;101750.84;5015447;28;20073;-63
2023/06/23 06:59:22;;;;;;;10.23;7.55;;;;;;;18.78;50.73;101749.66;5022791;28;20399;-60
2023/06/23 07:01:50;;;;;;;10.43;7.32;;;;;;;18.80;50.90;101753.97;5028840;28;20064;-60
2023/06/23 07:04:20;;;;;;;10.10;7.45;;;;;;;18.84;50.89;101772.03;5031458;28;20116;-61
2023/06/23 07:06:53;;;;;;;10.88;7.55;;;;;;;18.89;50.77;101771.50;5016661;28;20048;-60
2023/06/23 07:09:21;;;;;;;10.60;7.28;;;;;;;18.88;50.54;101770.63;5029630;28;20063;-62
2023/06/23 07:11:49;;;;;;;9.70;7.95;;;;;;;18.91;50.59;101775.00;5024419;28;20053;-62
2023/06/23 07:14:19;;;;;;;10.60;7.40;;;;;;;18.97;50.63;101779.00;5027981;28;20041;-60
2023/06/23 07:16:48;;;;;;;9.85;7.43;;;;;;;18.96;50.39;101774.50;5018426;28;20042;-61
2023/06/23 07:19:16;;;;;;;9.35;6.95;;;;;;;18.98;50.57;101776.06;5031783;28;20068;-61
2023/06/23 07:21:44;;;;;;;9.23;6.95;;;;;;;19.02;50.21;101779.38;5032212;28;20124;-60
2023/06/23 07:24:13;;;;;;;9.30;7.15;;;;;;;19.06;50.04;101783.53;5022012;28;20041;-61
2023/06/23 07:26:41;;;;;;;10.05;6.88;;;;;;;19.07;50.07;101790.84;5018933;28;20084;-61
2023/06/23 07:29:08;;;;;;;9.25;6.80;;;;;;;19.10;50.54;101787.75;5018910;28;20041;-61
2023/06/23 07:31:39;;;;;;;10.93;6.95;;;;;;;19.13;50.25;101785.47;5001821;28;20095;-62
2023/06/23 07:34:07;;;;;;;7.45;6.10;;;;;;;19.18;50.03;101801.63;5023275;28;20073;-61
2023/06/23 07:36:35;;;;;;;8.98;6.72;;;;;;;19.21;50.11;101796.63;5023215;28;20030;-63
2023/06/23 07:39:03;;;;;;;10.98;7.25;;;;;;;19.25;50.20;101792.50;5000444;28;20585;-62
2023/06/23 07:41:32;;;;;;;8.85;6.47;;;;;;;19.33;50.13;101801.88;5025079;28;20051;-61
2023/06/23 07:44:00;;;;;;;9.50;7.00;;;;;;;19.36;49.94;101791.31;5027014;28;20056;-61
2023/06/23 07:46:28;;;;;;;9.10;6.68;;;;;;;19.41;50.32;101800.00;5022306;28;20033;-61
2023/06/23 07:48:56;;;;;;;8.27;6.45;;;;;;;19.47;50.27;101802.09;5025922;28;20496;-62
2023/06/23 07:51:24;;;;;;;8.93;6.82;;;;;;;19.54;50.66;101799.53;5023667;28;20081;-62
2023/06/23 07:53:51;;;;;;;9.20;6.53;;;;;;;19.63;50.41;101799.34;5025607;28;20041;-60
2023/06/23 07:56:34;;;;;;;9.43;6.15;;;;;;;19.75;50.71;101807.34;5024818;28;20163;-62
2023/06/23 07:59:03;;;;;;;8.55;6.68;;;;;;;19.85;50.42;101816.41;5030128;23;20041;31
2023/06/23 08:01:31;;;;;;;8.32;6.32;;;;;;;19.93;50.26;101817.31;4999122;28;20053;-70
2023/06/23 08:03:59;;;;;;;8.40;6.20;;;;;;;20.05;50.18;101812.25;5008793;28;20120;-71
2023/06/23 08:06:27;;;;;;;8.05;6.35;;;;;;;20.16;50.33;101814.69;5012560;28;20042;-71
2023/06/23 08:08:55;;;;;;;8.43;5.97;;;;;;;20.27;50.04;101817.13;5029940;28;20048;-71
2023/06/23 08:11:23;;;;;;;8.95;6.55;;;;;;;20.39;49.86;101817.63;5030676;28;20504;-71
2023/06/23 08:13:53;;;;;;;8.07;6.07;;;;;;;20.50;49.35;101817.28;5017784;28;20111;-71
2023/06/23 08:16:22;;;;;;;6.65;5.22;;;;;;;20.57;49.09;101811.88;5028594;28;20075;-71
2023/06/23 08:18:51;;;;;;;6.88;5.13;;;;;;;20.65;49.06;101811.88;5031330;28;20033;-71
2023/06/23 08:21:19;;;;;;;7.90;5.72;;;;;;;20.73;48.58;101818.28;5023018;28;20132;-71
2023/06/23 08:23:47;;;;;;;8.43;5.80;;;;;;;20.81;48.57;101817.41;5022305;28;20129;-71
2023/06/23 08:26:15;;;;;;;7.70;5.65;;;;;;;20.88;48.56;101823.97;5024759;28;20515;-71
2023/06/23 08:28:43;;;;;;;7.07;5.13;;;;;;;20.92;48.34;101819.81;5023413;28;20103;-72
2023/06/23 08:31:12;;;;;;;7.55;5.13;;;;;;;21.01;48.28;101829.88;5031272;28;20133;-71
2023/06/23 08:33:41;;;;;;;6.55;4.72;;;;;;;21.06;48.05;101827.41;5024225;28;20055;-72
2023/06/23 08:36:09;;;;;;;8.98;5.30;;;;;;;21.13;48.09;101820.06;5025323;28;20054;-71
2023/06/23 08:38:37;;;;;;;7.35;5.07;;;;;;;21.21;47.77;101826.63;5030581;28;20045;-71
2023/06/23 08:41:06;;;;;;;5.35;4.13;;;;;;;21.31;47.67;101835.66;5012422;28;20497;-71
2023/06/23 08:43:36;;;;;;;5.45;3.78;;;;;;;21.40;47.44;101843.81;5011922;28;20051;-71
2023/06/23 08:46:07;;;;;;;6.47;4.10;;;;;;;21.49;47.29;101847.41;5012879;28;20058;-72
2023/06/23 08:48:38;;;;;;;8.38;5.00;;;;;;;21.59;46.69;101849.97;5006117;28;20339;-72
2023/06/23 08:51:06;;;;;;;6.22;4.50;;;;;;;21.66;46.87;101849.06;5020752;28;20088;-71
2023/06/23 08:53:34;;;;;;;7.07;4.68;;;;;;;21.74;46.33;101856.50;5027691;28;20048;-71
2023/06/23 08:56:02;;;;;;;7.20;4.95;;;;;;;21.79;45.92;101857.66;5027612;28;20061;-71
2023/06/23 08:58:30;;;;;;;5.88;4.22;;;;;;;21.86;45.68;101852.22;5026491;28;20096;-71
2023/06/23 09:00:58;;;;;;;6.88;4.47;;;;;;;21.91;45.45;101848.94;5021742;28;20052;-71
2023/06/23 09:03:26;;;;;;;4.60;3.47;;;;;;;21.95;44.94;101850.28;5028630;28;20037;-71
2023/06/23 09:05:55;;;;;;;6.72;4.40;;;;;;;21.99;45.08;101852.53;5026457;28;20049;-71
2023/06/23 09:08:23;;;;;;;5.85;4.07;;;;;;;22.01;45.09;101855.13;5027694;28;20113;-72
2023/06/23 09:10:51;;;;;;;5.68;4.20;;;;;;;22.04;44.77;101857.53;5024676;28;20437;-71
2023/06/23 09:13:23;;;;;;;6.28;3.92;;;;;;;22.07;44.35;101859.97;5021426;28;20128;-70
2023/06/23 09:15:52;;;;;;;5.20;3.70;;;;;;;22.07;44.57;101873.91;5023783;28;20041;-70
2023/06/23 09:18:31;;;;;;;5.78;4.07;;;;;;;22.11;44.15;101872.47;5030884;28;20513;-70
2023/06/23 09:21:02;;;;;;;6.35;3.85;;;;;;;22.13;43.63;101870.34;5034814;28;20505;-70
2023/06/23 09:23:31;;;;;;;5.00;3.80;;;;;;;22.13;43.79;101875.94;5036261;28;20408;-71
2023/06/23 09:26:03;;;;;;;4.70;3.13;;;;;;;22.15;43.80;101877.50;5031723;28;20057;-71
2023/06/23 09:28:35;;;;;;;5.32;3.47;;;;;;;22.17;44.13;101874.53;5028595;28;20033;-72
2023/06/23 09:31:14;;;;;;;5.10;3.07;;;;;;;22.20;43.32;101868.56;5033670;28;20053;-73
2023/06/23 09:33:48;;;;;;;6.07;4.03;;;;;;;22.27;43.07;101869.53;5033451;28;20060;-71
2023/06/23 09:36:17;;;;;;;;;;;;;;;21.96;44.28;101869.59;5018750;28;20042;-73
2023/06/23 09:38:48;;;;;;;5.18;3.20;;;;;;;22.27;43.90;101877.91;5028778;28;20437;-71
2023/06/23 09:41:17;;;;;;;5.28;3.20;;;;;;;22.34;43.56;101890.06;5047128;28;20133;-71
2023/06/23 09:43:47;;;;;;;5.72;3.72;;;;;;;22.37;43.19;101886.03;5030868;28;20511;-71
2023/06/23 09:46:16;;;;;;;5.60;3.35;;;;;;;22.39;43.27;101886.69;5044233;28;20041;-71
2023/06/23 09:48:45;;;;;;;5.25;3.42;;;;;;;22.40;42.97;101896.81;5032906;28;20088;-71
2023/06/23 09:51:14;;;;;;;5.82;3.13;;;;;;;22.42;42.71;101894.72;5030038;28;20559;-71
2023/06/23 09:53:44;;;;;;;5.28;3.20;;;;;;;22.45;42.46;101899.91;5033110;28;20487;-71
2023/06/23 09:56:15;;;;;;;5.45;3.17;;;;;;;22.46;42.08;101905.28;5028030;28;20584;-71
2023/06/23 09:58:44;;;;;;;4.10;2.80;;;;;;;22.45;42.48;101900.75;5028541;28;20037;-71
2023/06/23 10:01:15;;;;;;;4.53;3.00;;;;;;;22.50;42.31;101906.66;5029257;28;20073;-70
2023/06/23 10:03:44;;;;;;;6.15;3.38;;;;;;;22.55;42.35;101901.41;5036936;28;20408;-72
2023/06/23 10:06:22;;;;;;;4.55;3.05;;;;;;;22.64;41.77;101910.56;5020331;28;20041;-71
2023/06/23 10:08:55;;;;;;;4.70;3.30;;;;;;;22.69;41.73;101913.66;5020559;28;20037;-71
2023/06/23 10:11:33;;;;;;;3.95;2.75;;;;;;;22.76;41.37;101916.53;5027421;28;20045;-71
2023/06/23 10:14:05;;;;;;;5.63;3.22;;;;;;;22.78;42.06;101917.22;5022858;28;20099;-71
2023/06/23 10:16:34;;;;;;;4.60;3.33;;;;;;;22.82;41.97;101904.66;5025607;28;20075;-61
2023/06/23 10:19:04;;;;;;;3.72;2.60;;;;;;;22.88;41.84;101918.72;5028297;28;20037;-62
2023/06/23 10:21:32;;;;;;;4.18;2.88;;;;;;;22.92;41.74;101916.41;5022608;28;20046;-62
2023/06/23 10:24:04;;;;;;;3.47;2.60;;;;;;;22.99;41.21;101918.25;5016232;28;20213;-63
2023/06/23 10:26:34;;;;;;;;;;;;;;;22.72;42.42;101923.56;5022642;28;20099;-63
2023/06/23 10:29:06;;;;;;;5.07;3.03;;;;;;;23.06;41.49;101920.28;5019074;28;19921;-62
2023/06/23 10:31:36;;;;;;;4.18;2.90;;;;;;;23.14;41.67;101922.97;5023229;28;20571;-62
2023/06/23 10:34:06;;;;;;;5.25;2.97;;;;;;;23.23;41.31;101921.84;5026580;28;20057;-63
2023/06/23 10:36:37;;;;;;;3.90;2.80;;;;;;;23.28;41.33;101920.22;5017468;28;20421;-63
2023/06/23 10:39:10;;;;;;;4.28;3.00;;;;;;;23.36;40.77;101920.09;5020033;28;20428;-63
2023/06/23 10:41:40;;;;;;;4.15;2.90;;;;;;;23.42;40.69;101921.25;5027479;28;20038;-62
2023/06/23 10:44:09;;;;;;;3.90;2.63;;;;;;;23.48;40.38;101908.47;5017286;28;20480;-63
2023/06/23 10:46:38;;;;;;;4.15;2.92;;;;;;;23.57;40.01;101921.25;5022176;28;20057;-62
2023/06/23 10:49:07;;;;;;;4.60;3.08;;;;;;;23.61;39.75;101917.00;5027597;28;20528;-63
2023/06/23 10:51:37;;;;;;;4.20;2.80;;;;;;;23.68;39.59;101921.63;5023273;28;20053;-62
2023/06/23 10:54:09;;;;;;;4.30;2.88;;;;;;;23.74;38.96;101923.63;5022566;28;20045;-62
2023/06/23 10:56:38;;;;;;;4.05;2.90;;;;;;;23.76;39.06;101921.53;5025773;28;20501;-62
2023/06/23 10:59:22;;;;;;;4.72;2.90;;;;;;;23.86;37.68;101915.63;5031074;28;20492;-62
2023/06/23 11:02:18;;;;;;;4.03;2.67;;;;;;;23.89;37.79;101926.44;5019644;28;20796;-61
2023/06/23 11:04:55;;;;;;;5.00;2.95;;;;;;;23.96;37.50;101921.78;5014764;28;20108;-62
2023/06/23 11:07:24;;;;;;;4.03;2.75;;;;;;;24.01;38.06;101918.38;5022255;28;20041;-63
2023/06/23 11:10:06;;;;;;;3.78;2.67;;;;;;;24.08;37.26;101920.19;5021569;28;20029;-62
2023/06/23 11:12:41;;;;;;;4.30;2.40;;;;;;;24.10;37.93;101917.19;5019728;28;20523;-62
2023/06/23 11:15:15;;;;;;;3.50;2.65;;;;;;;24.19;36.07;101909.53;5017915;28;20045;-63
2023/06/23 11:18:04;;;;;;;3.78;2.60;;;;;;;24.25;36.07;101925.53;5027741;28;20061;-62
2023/06/23 11:20:33;;;;;;;3.92;2.60;;;;;;;24.28;36.62;101914.81;5029412;28;20071;-62
2023/06/23 11:23:05;;;;;;;4.20;2.65;;;;;;;24.36;35.66;101919.44;5014612;28;20050;-62
2023/06/23 11:25:39;;;;;;;4.07;2.30;;;;;;;24.38;35.92;101915.38;5024480;28;20049;-62
2023/06/23 11:28:40;;;;;;;3.97;2.85;;;;;;;24.37;35.67;101921.19;5018775;28;20563;-62
2023/06/23 11:31:13;;;;;;;3.92;2.40;;;;;;;24.49;34.77;101916.75;4989004;28;20053;-61
2023/06/23 11:33:42;;;;;;;4.40;2.90;;;;;;;24.53;35.57;101915.31;4989743;28;20046;-59
2023/06/23 11:36:12;;;;;;;4.10;2.70;;;;;;;24.58;35.12;101923.94;5000310;28;20053;-61
2023/06/23 11:38:42;;;;;;;4.28;2.70;;;;;;;24.64;34.38;101930.69;5059965;22;20047;-62
2023/06/23 11:41:25;;;;;;;3.72;2.30;;;;;;;24.67;33.55;101925.53;5044848;28;20052;-62